createdAt,value
2022-12-26T00:00:56.552Z,4.59
2022-12-26T00:05:15.313Z,4.60
2022-12-26T00:09:22.507Z,4.57
2022-12-26T00:13:39.195Z,4.52
2022-12-26T00:17:48.139Z,4.48
2022-12-26T00:21:57.649Z,4.46
2022-12-26T00:26:07.351Z,4.50
2022-12-26T00:30:15.066Z,4.53
2022-12-26T00:34:21.735Z,4.53
2022-12-26T00:38:28.398Z,4.51
2022-12-26T00:42:35.215Z,4.48
2022-12-26T00:46:42.372Z,4.49
2022-12-26T00:50:49.187Z,4.56
2022-12-26T00:54:55.847Z,4.62
2022-12-26T00:59:02.558Z,4.65
2022-12-26T01:03:11.983Z,4.71
2022-12-26T01:07:18.959Z,4.69
2022-12-26T01:11:39.533Z,4.69
2022-12-26T01:15:51.694Z,4.72
2022-12-26T01:19:59.008Z,4.76
2022-12-26T01:24:06.876Z,4.79
2022-12-26T01:28:13.705Z,4.79
2022-12-26T01:32:20.772Z,4.77
2022-12-26T01:36:27.579Z,4.72
2022-12-26T01:40:34.359Z,4.74
2022-12-26T01:45:10.941Z,4.75
2022-12-26T01:49:22.744Z,4.79
2022-12-26T01:53:40.892Z,4.79
2022-12-26T01:57:53.888Z,4.78
2022-12-26T02:02:02.050Z,4.77
2022-12-26T02:06:12.309Z,4.80
2022-12-26T02:10:25.135Z,4.80
2022-12-26T02:14:33.623Z,4.86
2022-12-26T02:18:41.140Z,4.86
2022-12-26T02:23:11.929Z,4.83
2022-12-26T02:27:37.836Z,4.81
2022-12-26T02:31:49.535Z,4.85
2022-12-26T02:36:11.698Z,4.84
2022-12-26T02:40:39.050Z,4.82
2022-12-26T02:45:10.141Z,4.80
2022-12-26T02:49:22.593Z,4.77
2022-12-26T02:53:58.699Z,4.78
2022-12-26T02:58:33.943Z,4.78
2022-12-26T03:03:03.523Z,4.77
2022-12-26T03:07:34.665Z,4.76
2022-12-26T03:12:02.817Z,4.71
2022-12-26T03:16:29.618Z,4.73
2022-12-26T03:20:39.509Z,4.75
2022-12-26T03:25:00.224Z,4.74
2022-12-26T03:29:25.845Z,4.72
2022-12-26T03:33:55.077Z,4.67
2022-12-26T03:38:07.534Z,4.61
2022-12-26T03:42:39.818Z,4.59
2022-12-26T03:47:20.731Z,4.56
2022-12-26T03:51:52.103Z,4.53
2022-12-26T03:56:24.075Z,4.50
2022-12-26T04:01:05.209Z,4.48
2022-12-26T04:05:34.169Z,4.51
2022-12-26T04:10:07.076Z,4.54
2022-12-26T04:14:37.274Z,4.58
2022-12-26T04:19:11.952Z,4.57
2022-12-26T04:23:58.045Z,4.54
2022-12-26T04:28:24.598Z,4.57
2022-12-26T04:33:05.645Z,4.60
2022-12-26T04:37:38.904Z,4.61
2022-12-26T04:42:05.223Z,4.56
2022-12-26T04:46:12.295Z,4.54
2022-12-26T04:50:19.391Z,4.56
2022-12-26T04:54:26.349Z,4.59
2022-12-26T04:58:33.284Z,4.57
2022-12-26T05:02:57.572Z,4.53
2022-12-26T05:07:26.819Z,4.49
2022-12-26T05:11:35.551Z,4.50
2022-12-26T05:15:56.351Z,4.52
2022-12-26T05:20:21.244Z,4.54
2022-12-26T05:24:48.972Z,4.51
2022-12-26T05:29:00.914Z,4.46
2022-12-26T05:33:25.526Z,4.48
2022-12-26T05:37:30.766Z,4.51
2022-12-26T05:41:38.278Z,4.52
2022-12-26T05:45:44.928Z,4.51
2022-12-26T05:49:51.747Z,4.52
2022-12-26T05:53:58.791Z,4.50
2022-12-26T05:58:05.739Z,4.48
2022-12-26T06:02:12.485Z,4.55
2022-12-26T06:06:20.409Z,4.59
2022-12-26T06:10:29.822Z,4.61
2022-12-26T06:14:36.560Z,4.63
2022-12-26T06:18:43.429Z,4.63
2022-12-26T06:22:50.231Z,4.63
2022-12-26T06:26:57.456Z,4.69
2022-12-26T06:31:11.193Z,4.73
2022-12-26T06:35:18.211Z,4.73
2022-12-26T06:39:25.317Z,4.70
2022-12-26T06:43:31.988Z,4.67
2022-12-26T06:47:39.107Z,4.64
2022-12-26T06:51:46.209Z,4.64
2022-12-26T06:55:53.773Z,4.67
2022-12-26T07:00:00.590Z,4.68
2022-12-26T07:04:08.122Z,4.66
2022-12-26T07:08:14.939Z,4.67
2022-12-26T07:12:22.100Z,4.69
2022-12-26T07:16:29.582Z,4.73
2022-12-26T07:20:36.530Z,4.75
2022-12-26T07:24:43.314Z,4.76
2022-12-26T07:28:50.895Z,4.78
2022-12-26T07:32:57.689Z,4.83
2022-12-26T07:37:04.679Z,4.86
2022-12-26T07:41:29.020Z,4.89
2022-12-26T07:45:40.346Z,4.94
2022-12-26T07:49:50.228Z,4.99
2022-12-26T07:53:57.002Z,5.00
2022-12-26T07:58:03.732Z,5.06
2022-12-26T08:02:12.256Z,5.12
2022-12-26T08:06:19.901Z,5.21
2022-12-26T08:10:26.830Z,5.23
2022-12-26T08:14:33.830Z,5.29
2022-12-26T08:18:41.580Z,5.29
2022-12-26T08:22:48.303Z,5.33
2022-12-26T08:26:55.081Z,5.42
2022-12-26T08:31:01.831Z,5.52
2022-12-26T08:35:10.070Z,5.55
2022-12-26T08:39:16.851Z,5.57
2022-12-26T08:44:24.423Z,5.58
2022-12-26T08:47:51.116Z,5.65
2022-12-26T08:51:57.909Z,5.78
2022-12-26T08:56:05.828Z,5.89
2022-12-26T09:00:14.942Z,6.02
2022-12-26T09:04:22.026Z,6.09
2022-12-26T09:08:29.847Z,6.20
2022-12-26T09:12:36.568Z,6.34
2022-12-26T09:16:50.435Z,6.42
2022-12-26T09:21:00.230Z,6.50
2022-12-26T09:25:08.043Z,6.57
2022-12-26T09:29:15.478Z,6.64
2022-12-26T09:33:22.474Z,6.66
2022-12-26T09:37:29.205Z,6.68
2022-12-26T09:42:00.983Z,6.71
2022-12-26T09:46:16.766Z,6.82
2022-12-26T09:50:31.155Z,6.91
2022-12-26T09:54:43.962Z,6.97
2022-12-26T09:58:53.454Z,7.08
2022-12-26T10:03:01.619Z,7.10
2022-12-26T10:07:23.258Z,7.16
2022-12-26T10:11:44.667Z,7.17
2022-12-26T10:15:54.782Z,7.24
2022-12-26T10:20:16.234Z,7.30
2022-12-26T10:24:26.581Z,7.33
2022-12-26T10:28:40.309Z,7.30
2022-12-26T10:32:52.294Z,7.31
2022-12-26T10:37:08.751Z,7.43
2022-12-26T10:41:49.153Z,7.60
2022-12-26T10:46:11.240Z,7.75
2022-12-26T10:50:45.673Z,7.83
2022-12-26T10:55:28.144Z,7.87
2022-12-26T10:59:43.739Z,8.00
2022-12-26T11:04:01.307Z,8.12
2022-12-26T11:08:37.859Z,8.26
2022-12-26T11:13:00.952Z,8.36
2022-12-26T11:17:28.832Z,8.43
2022-12-26T11:21:36.183Z,8.56
2022-12-26T11:25:51.270Z,8.84
2022-12-26T11:30:17.237Z,9.08
2022-12-26T11:34:32.612Z,9.35
2022-12-26T11:38:54.886Z,9.55
2022-12-26T11:43:04.512Z,9.70
2022-12-26T11:47:27.108Z,9.75
2022-12-26T11:51:42.748Z,9.87
2022-12-26T11:56:05.345Z,10.06
2022-12-26T12:00:36.740Z,10.18
2022-12-26T12:04:55.914Z,10.08
2022-12-26T12:09:19.940Z,9.87
2022-12-26T12:13:48.982Z,9.73
2022-12-26T12:18:19.418Z,9.62
2022-12-26T12:22:54.644Z,9.65
2022-12-26T12:27:17.137Z,9.91
2022-12-26T12:31:50.961Z,10.11
2022-12-26T12:36:21.955Z,10.33
2022-12-26T12:40:51.117Z,10.47
2022-12-26T12:45:27.895Z,10.59
2022-12-26T12:50:05.138Z,10.64
2022-12-26T12:54:44.519Z,10.62
2022-12-26T12:59:04.191Z,10.63
2022-12-26T13:03:37.099Z,10.61
2022-12-26T13:17:14.885Z,10.65
2022-12-26T13:21:26.620Z,10.63
2022-12-26T13:25:54.243Z,10.62
2022-12-26T13:30:00.979Z,10.70
2022-12-26T13:34:12.329Z,10.75
2022-12-26T13:38:23.311Z,10.76
2022-12-26T13:43:05.496Z,10.78
2022-12-26T13:47:36.988Z,10.74
2022-12-26T13:51:57.874Z,10.65
2022-12-26T13:56:12.301Z,10.73
2022-12-26T14:00:23.607Z,10.75
2022-12-26T14:04:43.992Z,10.76
2022-12-26T14:09:12.020Z,10.76
2022-12-26T14:13:43.123Z,10.74
2022-12-26T14:18:00.600Z,10.72
2022-12-26T14:22:16.573Z,10.74
2022-12-26T14:26:34.980Z,10.75
2022-12-26T14:30:58.691Z,10.75
2022-12-26T14:35:16.542Z,10.74
2022-12-26T14:39:33.513Z,10.70
2022-12-26T14:43:42.079Z,10.66
2022-12-26T14:47:50.772Z,10.69
2022-12-26T14:52:17.788Z,10.71
2022-12-26T14:56:37.673Z,10.68
2022-12-26T15:00:45.919Z,10.64
2022-12-26T15:05:09.494Z,10.61
2022-12-26T15:09:35.008Z,10.60
2022-12-26T15:14:23.081Z,10.64
2022-12-26T15:19:07.868Z,10.66
2022-12-26T15:23:46.378Z,10.66
2022-12-26T15:28:23.059Z,10.62
2022-12-26T15:32:36.916Z,10.57
2022-12-26T15:36:50.634Z,10.56
2022-12-26T15:41:11.183Z,10.54
2022-12-26T15:45:32.490Z,10.50
2022-12-26T15:50:03.666Z,10.42
2022-12-26T15:54:27.940Z,10.37
2022-12-26T15:58:57.892Z,10.38
2022-12-26T16:03:20.137Z,10.39
2022-12-26T16:07:38.680Z,10.36
2022-12-26T16:11:54.127Z,10.31
2022-12-26T16:16:01.998Z,10.28
2022-12-26T16:20:42.387Z,10.31
2022-12-26T16:24:51.644Z,10.32
2022-12-26T16:29:00.824Z,10.29
2022-12-26T16:33:08.389Z,10.26
2022-12-26T16:37:20.096Z,10.22
2022-12-26T16:41:28.488Z,10.28
2022-12-26T16:45:38.517Z,10.31
2022-12-26T16:49:47.125Z,10.33
2022-12-26T16:53:53.865Z,10.32
2022-12-26T16:58:03.398Z,10.29
2022-12-26T17:02:18.807Z,10.25
2022-12-26T17:06:30.981Z,10.25
2022-12-26T17:10:39.539Z,10.23
2022-12-26T17:14:50.221Z,10.18
2022-12-26T17:18:57.982Z,10.12
2022-12-26T17:23:43.870Z,10.08
2022-12-26T17:28:12.480Z,10.10
2022-12-26T17:32:28.644Z,10.10
2022-12-26T17:37:17.289Z,10.09
2022-12-26T17:41:06.632Z,10.04
2022-12-26T17:45:18.985Z,9.97
2022-12-26T17:49:25.623Z,9.91
2022-12-26T17:53:34.110Z,9.93
2022-12-26T17:57:40.803Z,9.94
2022-12-26T18:01:47.572Z,9.95
2022-12-26T18:05:56.585Z,9.94
2022-12-26T18:10:04.745Z,9.94
2022-12-26T18:14:15.719Z,9.93
2022-12-26T18:18:28.151Z,9.98
2022-12-26T18:22:34.905Z,9.97
2022-12-26T18:26:44.765Z,9.97
2022-12-26T18:30:51.481Z,10.00
2022-12-26T18:34:59.261Z,10.03
2022-12-26T18:39:06.694Z,10.02
2022-12-26T18:43:14.111Z,9.96
2022-12-26T18:47:22.414Z,9.91
2022-12-26T18:51:29.151Z,9.95
2022-12-26T18:55:35.893Z,9.98
2022-12-26T18:59:42.564Z,9.99
2022-12-26T19:03:49.556Z,9.95
2022-12-26T19:07:56.339Z,9.92
2022-12-26T19:12:03.074Z,9.89
2022-12-26T19:16:10.311Z,9.86
2022-12-26T19:20:22.284Z,9.88
2022-12-26T19:24:29.204Z,9.88
2022-12-26T19:28:35.878Z,9.88
2022-12-26T19:32:43.677Z,9.84
2022-12-26T19:36:50.746Z,9.82
2022-12-26T19:41:03.741Z,9.85
2022-12-26T19:45:12.919Z,9.85
2022-12-26T19:49:19.617Z,9.83
2022-12-26T19:53:26.281Z,9.74
2022-12-26T19:57:33.234Z,9.63
2022-12-26T20:01:41.055Z,9.54
2022-12-26T20:05:47.867Z,9.56
2022-12-26T20:09:54.832Z,9.60
2022-12-26T20:14:02.609Z,9.65
2022-12-26T20:18:14.585Z,9.61
2022-12-26T20:22:21.888Z,9.52
2022-12-26T20:26:29.583Z,9.52
2022-12-26T20:30:36.468Z,9.62
2022-12-26T20:34:43.443Z,9.73
2022-12-26T20:38:53.015Z,9.76
2022-12-26T20:42:59.721Z,9.73
2022-12-26T20:47:06.461Z,9.68
2022-12-26T20:51:16.495Z,9.63
2022-12-26T20:55:23.309Z,9.66
2022-12-26T20:59:30.310Z,9.71
2022-12-26T21:03:37.787Z,9.74
2022-12-26T21:07:45.034Z,9.73
2022-12-26T21:11:51.812Z,9.68
2022-12-26T21:15:58.668Z,9.64
2022-12-26T21:20:06.123Z,9.62
2022-12-26T21:24:16.743Z,9.61
2022-12-26T21:28:23.584Z,9.61
2022-12-26T21:32:30.361Z,9.61
2022-12-26T21:36:39.097Z,9.59
2022-12-26T21:40:46.390Z,9.58
2022-12-26T21:44:53.292Z,9.57
2022-12-26T21:49:01.114Z,9.49
2022-12-26T21:53:08.198Z,9.35
2022-12-26T21:57:15.047Z,9.16
2022-12-26T22:01:23.580Z,9.02
2022-12-26T22:05:31.977Z,8.90
2022-12-26T22:09:38.802Z,8.81
2022-12-26T22:13:47.303Z,8.72
2022-12-26T22:17:54.085Z,8.63
2022-12-26T22:22:00.918Z,8.53
2022-12-26T22:26:08.771Z,8.42
2022-12-26T22:30:16.388Z,8.31
2022-12-26T22:34:23.259Z,8.26
2022-12-26T22:38:32.848Z,8.19
2022-12-26T22:42:39.594Z,8.16
2022-12-26T22:46:46.433Z,8.08
2022-12-26T22:50:55.118Z,8.06
2022-12-26T22:55:01.868Z,8.24
2022-12-26T22:59:08.606Z,8.41
2022-12-26T23:03:16.096Z,8.49
2022-12-26T23:07:24.366Z,8.49
2022-12-26T23:11:35.707Z,8.49
2022-12-26T23:15:55.080Z,8.53
2022-12-26T23:20:19.310Z,8.55
2022-12-26T23:24:28.156Z,8.50
2022-12-26T23:28:52.651Z,8.45
2022-12-26T23:32:59.564Z,8.49
2022-12-26T23:37:06.734Z,8.56
2022-12-26T23:41:13.566Z,8.59
2022-12-26T23:45:20.441Z,8.60
2022-12-26T23:49:27.259Z,8.60
2022-12-26T23:53:33.950Z,8.66
2022-12-26T23:57:40.764Z,8.70
